Hinton, Virginia
Current Conditions -  °F | °C
As of 7:15 AM on Tuesday 27 Jan 2015 (Local Time) from KVBW Reporting Station
Overcast Overcast  
Wind Chill: 26°   Ceiling: 7500
Heat Index: 26°   Visibility: 10mi
Dew Point: 17°   Wind: 3mph
Humidity: 68%   Direction: 360°N
Pressure: 29.77"   Gusts: NA
Location:  38.47°N, 78.97°W
Report Text: KVBW 271215Z AUTO 36003KT 10SM OVC075 M03/M08 A2977 RMK AO2 T10331085
Loading
Personal Weather Stations






























Interactive Weather Map New forecast layout! Learn more

10-Day Weather Forecast

Advertisements
Track Severe Weather on mobile